createdAt,value
2022-10-10T00:01:14.514Z,101222.22
2022-10-10T00:03:43.237Z,101218.44
2022-10-10T00:06:12.367Z,101224.03
2022-10-10T00:08:41.182Z,101216.25
2022-10-10T00:11:09.622Z,101230.31
2022-10-10T00:13:39.772Z,101231.72
2022-10-10T00:16:08.336Z,101236.59
2022-10-10T00:18:36.893Z,101231.66
2022-10-10T00:21:05.616Z,101225.78
2022-10-10T00:23:33.753Z,101236.63
2022-10-10T00:26:06.841Z,101243.91
2022-10-10T00:28:39.196Z,101223.47
2022-10-10T00:31:08.504Z,101238.84
2022-10-10T00:33:37.212Z,101247.31
2022-10-10T00:36:05.628Z,101259.06
2022-10-10T00:38:34.965Z,101257.38
2022-10-10T00:41:03.496Z,101252.78
2022-10-10T00:43:32.280Z,101252.00
2022-10-10T00:46:01.887Z,101250.91
2022-10-10T00:48:32.305Z,101253.00
2022-10-10T00:51:04.399Z,101254.25
2022-10-10T00:53:35.041Z,101256.00
2022-10-10T00:56:04.315Z,101253.59
2022-10-10T00:58:34.826Z,101266.84
2022-10-10T01:01:04.670Z,101261.19
2022-10-10T01:03:32.746Z,101260.38
2022-10-10T01:06:01.120Z,101260.75
2022-10-10T01:08:29.684Z,101267.03
2022-10-10T01:11:30.524Z,101271.22
2022-10-10T01:14:07.677Z,101273.91
2022-10-10T01:16:46.224Z,101274.13
2022-10-10T01:19:38.021Z,101269.66
2022-10-10T01:22:22.685Z,101267.13
2022-10-10T01:25:02.748Z,101273.63
2022-10-10T01:27:36.357Z,101279.00
2022-10-10T01:30:08.769Z,101291.84
2022-10-10T01:32:43.145Z,101278.31
2022-10-10T01:35:26.834Z,101286.69
2022-10-10T01:38:04.505Z,101290.00
2022-10-10T01:40:40.298Z,101290.06
2022-10-10T01:43:10.034Z,101296.25
2022-10-10T01:45:39.515Z,101300.94
2022-10-10T01:48:08.786Z,101298.66
2022-10-10T01:50:48.341Z,101294.47
2022-10-10T01:53:22.043Z,101297.25
2022-10-10T01:55:58.481Z,101293.25
2022-10-10T01:58:48.929Z,101297.53
2022-10-10T02:01:27.599Z,101289.25
2022-10-10T02:04:04.013Z,101298.84
2022-10-10T02:06:39.815Z,101293.06
2022-10-10T02:09:13.518Z,101292.66
2022-10-10T02:11:42.761Z,101297.75
2022-10-10T02:14:16.391Z,101302.03
2022-10-10T02:16:49.076Z,101306.91
2022-10-10T02:19:20.730Z,101301.44
2022-10-10T02:21:50.116Z,101308.50
2022-10-10T02:24:21.007Z,101311.00
2022-10-10T02:26:55.279Z,101323.94
2022-10-10T02:29:28.821Z,101323.75
2022-10-10T02:32:04.236Z,101329.31
2022-10-10T02:34:37.085Z,101319.56
2022-10-10T02:37:09.416Z,101338.31
2022-10-10T02:39:45.763Z,101328.97
2022-10-10T02:42:17.057Z,101331.84
2022-10-10T02:44:46.593Z,101333.13
2022-10-10T02:47:16.460Z,101334.13
2022-10-10T02:49:44.914Z,101331.66
2022-10-10T02:52:16.395Z,101329.53
2022-10-10T02:54:44.769Z,101338.59
2022-10-10T02:57:13.289Z,101346.28
2022-10-10T02:59:41.553Z,101347.47
2022-10-10T03:02:09.746Z,101351.88
2022-10-10T03:04:39.753Z,101352.84
2022-10-10T03:07:08.134Z,101355.94
2022-10-10T03:09:36.200Z,101349.84
2022-10-10T03:12:04.322Z,101355.22
2022-10-10T03:14:32.483Z,101361.63
2022-10-10T03:17:00.831Z,101364.91
2022-10-10T03:19:28.974Z,101372.25
2022-10-10T03:21:58.459Z,101370.94
2022-10-10T03:24:27.030Z,101379.13
2022-10-10T03:26:55.423Z,101378.66
2022-10-10T03:29:24.097Z,101381.13
2022-10-10T03:31:52.306Z,101376.34
2022-10-10T03:34:20.374Z,101364.78
2022-10-10T03:36:48.475Z,101367.00
2022-10-10T03:39:18.142Z,101376.91
2022-10-10T03:41:46.638Z,101390.84
2022-10-10T03:44:14.719Z,101383.75
2022-10-10T03:46:42.795Z,101390.75
2022-10-10T03:49:10.875Z,101393.13
2022-10-10T03:51:38.992Z,101396.72
2022-10-10T03:54:07.240Z,101400.63
2022-10-10T03:56:36.739Z,101401.91
2022-10-10T03:59:06.309Z,101397.25
2022-10-10T04:01:36.032Z,101397.22
2022-10-10T04:04:05.291Z,101392.56
2022-10-10T04:06:33.438Z,101400.78
2022-10-10T04:09:01.550Z,101404.19
2022-10-10T04:11:29.613Z,101409.56
2022-10-10T04:13:59.232Z,101391.97
2022-10-10T04:16:27.342Z,101395.59
2022-10-10T04:18:55.721Z,101403.66
2022-10-10T04:21:23.854Z,101406.94
2022-10-10T04:23:52.115Z,101407.47
2022-10-10T04:26:20.162Z,101411.16
2022-10-10T04:28:48.414Z,101418.56
2022-10-10T04:31:17.952Z,101419.06
2022-10-10T04:33:46.003Z,101421.16
2022-10-10T04:36:14.194Z,101428.22
2022-10-10T04:38:42.414Z,101433.03
2022-10-10T04:41:10.755Z,101425.34
2022-10-10T04:43:38.829Z,101432.66
2022-10-10T04:46:07.200Z,101434.41
2022-10-10T04:48:37.701Z,101430.41
2022-10-10T04:51:06.100Z,101440.28
2022-10-10T04:53:34.556Z,101428.75
2022-10-10T04:56:02.933Z,101438.00
2022-10-10T04:58:31.084Z,101437.31
2022-10-10T05:00:59.212Z,101440.59
2022-10-10T05:03:27.454Z,101455.75
2022-10-10T05:05:57.093Z,101448.06
2022-10-10T05:08:25.264Z,101439.59
2022-10-10T05:10:54.836Z,101444.81
2022-10-10T05:13:22.896Z,101449.38
2022-10-10T05:15:52.214Z,101447.38
2022-10-10T05:18:20.445Z,101446.50
2022-10-10T05:20:48.789Z,101449.00
2022-10-10T05:23:18.532Z,101446.59
2022-10-10T05:25:49.676Z,101455.69
2022-10-10T05:28:18.178Z,101458.88
2022-10-10T05:30:46.422Z,101464.16
2022-10-10T05:33:14.498Z,101470.94
2022-10-10T05:35:42.676Z,101468.53
2022-10-10T05:38:10.939Z,101483.91
2022-10-10T05:40:42.118Z,101470.72
2022-10-10T05:43:10.245Z,101483.66
2022-10-10T05:45:38.314Z,101481.31
2022-10-10T05:48:06.433Z,101488.66
2022-10-10T05:50:38.602Z,101488.44
2022-10-10T05:53:06.936Z,101483.59
2022-10-10T05:55:35.570Z,101488.94
2022-10-10T05:58:05.324Z,101493.81
2022-10-10T06:00:33.702Z,101492.13
2022-10-10T06:03:02.157Z,101497.59
2022-10-10T06:05:30.341Z,101507.44
2022-10-10T06:08:10.613Z,101508.22
2022-10-10T06:10:41.518Z,101516.97
2022-10-10T06:13:11.554Z,101513.47
2022-10-10T06:15:39.987Z,101511.41
2022-10-10T06:18:08.737Z,101519.19
2022-10-10T06:20:36.903Z,101518.25
2022-10-10T06:23:05.253Z,101519.84
2022-10-10T06:25:42.140Z,101528.16
2022-10-10T06:28:12.990Z,101522.59
2022-10-10T06:30:42.192Z,101532.25
2022-10-10T06:33:10.631Z,101526.84
2022-10-10T06:35:43.817Z,101546.28
2022-10-10T06:38:12.683Z,101535.72
2022-10-10T06:40:41.277Z,101535.75
2022-10-10T06:43:12.060Z,101520.47
2022-10-10T06:45:43.318Z,101523.84
2022-10-10T06:48:12.569Z,101534.41
2022-10-10T06:50:40.923Z,101529.13
2022-10-10T06:53:09.106Z,101537.53
2022-10-10T06:55:37.419Z,101548.25
2022-10-10T06:58:05.785Z,101543.81
2022-10-10T07:00:33.888Z,101544.31
2022-10-10T07:03:03.517Z,101548.31
2022-10-10T07:05:31.650Z,101551.69
2022-10-10T07:07:59.740Z,101548.69
2022-10-10T07:10:27.864Z,101546.00
2022-10-10T07:12:56.163Z,101547.47
2022-10-10T07:15:24.652Z,101548.09
2022-10-10T07:17:59.944Z,101546.88
2022-10-10T07:20:29.442Z,101554.06
2022-10-10T07:22:57.697Z,101552.59
2022-10-10T07:25:25.887Z,101552.78
2022-10-10T07:27:54.182Z,101564.28
2022-10-10T07:30:22.349Z,101543.75
2022-10-10T07:32:50.813Z,101552.66
2022-10-10T07:35:19.261Z,101553.78
2022-10-10T07:37:48.726Z,101551.72
2022-10-10T07:40:16.865Z,101553.59
2022-10-10T07:42:45.376Z,101559.47
2022-10-10T07:45:13.703Z,101549.44
2022-10-10T07:47:42.257Z,101548.50
2022-10-10T07:50:12.860Z,101546.06
2022-10-10T07:52:41.692Z,101547.47
2022-10-10T07:55:11.714Z,101545.69
2022-10-10T07:57:39.875Z,101539.75
2022-10-10T08:00:10.269Z,101543.56
2022-10-10T08:02:38.481Z,101550.09
2022-10-10T08:05:07.373Z,101545.91
2022-10-10T08:07:35.775Z,101551.66
2022-10-10T08:10:04.421Z,101543.38
2022-10-10T08:12:33.957Z,101536.75
2022-10-10T08:15:02.042Z,101540.09
2022-10-10T08:17:30.584Z,101539.00
2022-10-10T08:19:58.686Z,101537.34
2022-10-10T08:22:27.125Z,101544.31
2022-10-10T08:24:55.245Z,101534.88
2022-10-10T08:27:23.341Z,101537.25
2022-10-10T08:29:53.203Z,101546.78
2022-10-10T08:32:21.293Z,101539.50
2022-10-10T08:34:49.372Z,101541.16
2022-10-10T08:37:17.701Z,101534.09
2022-10-10T08:39:45.766Z,101534.41
2022-10-10T08:42:18.830Z,101539.38
2022-10-10T08:44:52.127Z,101544.94
2022-10-10T08:47:25.571Z,101545.19
2022-10-10T08:49:58.749Z,101536.97
2022-10-10T08:52:34.858Z,101540.44
2022-10-10T08:55:05.448Z,101542.88
2022-10-10T08:57:43.703Z,101537.53
2022-10-10T09:00:18.482Z,101544.94
2022-10-10T09:03:03.194Z,101542.22
2022-10-10T09:05:43.852Z,101547.44
2022-10-10T09:08:34.863Z,101547.13
2022-10-10T09:11:13.246Z,101542.63
2022-10-10T09:13:50.480Z,101560.34
2022-10-10T09:16:28.112Z,101555.41
2022-10-10T09:19:18.211Z,101551.31
2022-10-10T09:21:47.370Z,101554.19
2022-10-10T09:24:21.270Z,101563.41
2022-10-10T09:26:52.645Z,101551.03
2022-10-10T09:29:31.796Z,101558.56
2022-10-10T09:32:05.375Z,101558.56
2022-10-10T09:34:40.048Z,101552.09
2022-10-10T09:37:24.275Z,101547.00
2022-10-10T09:40:00.691Z,101551.22
2022-10-10T09:42:37.035Z,101547.75
2022-10-10T09:45:14.507Z,101543.59
2022-10-10T09:47:42.956Z,101544.94
2022-10-10T09:50:16.609Z,101540.78
2022-10-10T09:52:45.504Z,101536.84
2022-10-10T09:55:26.580Z,101533.31
2022-10-10T09:57:56.618Z,101538.72
2022-10-10T10:00:33.930Z,101544.38
2022-10-10T10:03:14.061Z,101538.84
2022-10-10T10:05:46.995Z,101534.94
2022-10-10T10:08:25.940Z,101531.91
2022-10-10T10:10:58.238Z,101523.56
2022-10-10T10:13:30.786Z,101537.91
2022-10-10T10:16:04.532Z,101522.84
2022-10-10T10:18:39.079Z,101536.34
2022-10-10T10:21:21.223Z,101527.50
2022-10-10T10:24:09.394Z,101526.03
2022-10-10T10:26:45.743Z,101528.47
2022-10-10T10:29:30.018Z,101520.13
2022-10-10T10:32:06.239Z,101525.81
2022-10-10T10:34:55.294Z,101527.69
2022-10-10T10:37:28.849Z,101522.69
2022-10-10T10:40:29.446Z,101516.41
2022-10-10T10:43:22.442Z,101517.66
2022-10-10T10:46:02.309Z,101508.94
2022-10-10T10:48:40.560Z,101516.91
2022-10-10T10:51:23.010Z,101517.84
2022-10-10T10:54:04.369Z,101512.03
2022-10-10T10:56:39.925Z,101510.09
2022-10-10T11:00:16.450Z,101510.91
2022-10-10T11:02:55.487Z,101503.69
2022-10-10T11:05:42.141Z,101499.97
2022-10-10T11:08:40.999Z,101502.31
2022-10-10T11:11:33.592Z,101495.50
2022-10-10T11:14:11.077Z,101491.44
2022-10-10T11:16:49.380Z,101488.00
2022-10-10T11:19:30.663Z,101487.41
2022-10-10T11:22:06.047Z,101476.34
2022-10-10T11:24:44.602Z,101477.38
2022-10-10T11:27:20.352Z,101480.22
2022-10-10T11:29:56.322Z,101475.78
2022-10-10T11:32:30.841Z,101475.78
2022-10-10T11:35:16.959Z,101489.91
2022-10-10T11:37:49.464Z,101488.84
2022-10-10T11:40:43.155Z,101472.97
2022-10-10T11:43:21.313Z,101477.81
2022-10-10T11:45:57.529Z,101480.31
2022-10-10T11:48:37.255Z,101486.00
2022-10-10T11:51:16.501Z,101485.00
2022-10-10T11:53:47.268Z,101485.63
2022-10-10T11:56:23.824Z,101494.69
2022-10-10T11:58:58.868Z,101495.53
2022-10-10T12:01:30.913Z,101493.09
2022-10-10T12:03:59.076Z,101482.78
2022-10-10T12:06:32.090Z,101491.47
2022-10-10T12:09:04.947Z,101504.25
2022-10-10T12:11:38.135Z,101489.16
2022-10-10T12:14:09.810Z,101488.97
2022-10-10T12:16:39.581Z,101478.28
2022-10-10T12:19:15.076Z,101476.56
2022-10-10T12:22:01.932Z,101484.13
2022-10-10T12:24:31.733Z,101481.81
2022-10-10T12:27:42.667Z,101484.41
2022-10-10T12:30:24.894Z,101494.34
2022-10-10T12:32:56.944Z,101492.00
2022-10-10T12:35:35.169Z,101493.84
2022-10-10T12:38:24.845Z,101490.34
2022-10-10T12:41:15.208Z,101496.72
2022-10-10T12:43:51.113Z,101487.56
2022-10-10T12:46:29.209Z,101500.13
2022-10-10T12:49:14.626Z,101497.16
2022-10-10T12:51:44.382Z,101493.34
2022-10-10T12:54:25.582Z,101496.56
2022-10-10T12:57:02.579Z,101498.47
2022-10-10T12:59:30.706Z,101507.53
2022-10-10T13:02:05.997Z,101503.81
2022-10-10T13:04:34.268Z,101498.78
2022-10-10T13:07:04.710Z,101494.34
2022-10-10T13:09:36.300Z,101493.44
2022-10-10T13:12:06.513Z,101491.81
2022-10-10T13:14:43.125Z,101494.19
2022-10-10T13:17:24.175Z,101494.34
2022-10-10T13:19:53.460Z,101497.56
2022-10-10T13:22:22.694Z,101498.84
2022-10-10T13:24:52.439Z,101484.81
2022-10-10T13:27:22.902Z,101489.44
2022-10-10T13:29:52.076Z,101492.16
2022-10-10T13:32:25.382Z,101484.81
2022-10-10T13:34:55.593Z,101489.75
2022-10-10T13:37:24.457Z,101485.63
2022-10-10T13:39:53.845Z,101493.44
2022-10-10T13:42:34.485Z,101492.16
2022-10-10T13:45:03.967Z,101491.81
2022-10-10T13:47:55.114Z,101499.16
2022-10-10T13:50:27.360Z,101492.78
2022-10-10T13:53:24.451Z,101482.94
2022-10-10T13:55:59.778Z,101483.75
2022-10-10T13:58:29.241Z,101475.94
2022-10-10T14:00:59.293Z,101483.22
2022-10-10T14:03:31.118Z,101484.31
2022-10-10T14:05:59.660Z,101482.28
2022-10-10T14:08:32.179Z,101474.34
2022-10-10T14:11:02.701Z,101478.97
2022-10-10T14:13:33.717Z,101475.59
2022-10-10T14:16:12.742Z,101479.13
2022-10-10T14:18:42.338Z,101483.34
2022-10-10T14:21:10.666Z,101475.56
2022-10-10T14:23:39.395Z,101475.41
2022-10-10T14:26:12.860Z,101481.94
2022-10-10T14:28:41.290Z,101481.75
2022-10-10T14:31:09.487Z,101482.66
2022-10-10T14:33:38.280Z,101480.56
2022-10-10T14:36:08.514Z,101473.72
2022-10-10T14:38:36.612Z,101471.75
2022-10-10T14:41:05.521Z,101470.03
2022-10-10T14:43:34.091Z,101474.00
2022-10-10T14:46:03.135Z,101473.31
2022-10-10T14:48:31.291Z,101471.44
2022-10-10T14:50:59.807Z,101471.72
2022-10-10T14:53:29.432Z,101472.81
2022-10-10T14:55:57.585Z,101477.69
2022-10-10T14:58:25.724Z,101480.50
2022-10-10T15:00:54.519Z,101480.81
2022-10-10T15:03:23.039Z,101484.75
2022-10-10T15:05:51.875Z,101473.31
2022-10-10T15:08:20.425Z,101480.59
2022-10-10T15:10:50.091Z,101484.22
2022-10-10T15:13:18.288Z,101479.34
2022-10-10T15:15:48.426Z,101479.47
2022-10-10T15:18:49.260Z,101480.09
2022-10-10T15:21:10.311Z,101477.50
2022-10-10T15:23:38.624Z,101482.56
2022-10-10T15:26:08.936Z,101475.56
2022-10-10T15:28:37.338Z,101478.13
2022-10-10T15:31:06.129Z,101478.94
2022-10-10T15:33:34.657Z,101484.94
2022-10-10T15:36:09.574Z,101478.69
2022-10-10T15:38:38.973Z,101476.41
2022-10-10T15:41:10.977Z,101488.78
2022-10-10T15:43:46.130Z,101488.59
2022-10-10T15:46:14.416Z,101482.88
2022-10-10T15:48:43.047Z,101495.41
2022-10-10T15:51:11.392Z,101497.09
2022-10-10T15:53:39.722Z,101487.06
2022-10-10T15:56:11.412Z,101492.53
2022-10-10T15:58:40.694Z,101488.44
2022-10-10T16:01:14.164Z,101490.84
2022-10-10T16:03:42.828Z,101487.06
2022-10-10T16:06:11.618Z,101484.97
2022-10-10T16:08:40.526Z,101481.28
2022-10-10T16:11:13.279Z,101489.66
2022-10-10T16:13:42.972Z,101491.53
2022-10-10T16:16:12.825Z,101492.06
2022-10-10T16:18:42.690Z,101493.47
2022-10-10T16:21:13.312Z,101489.75
2022-10-10T16:23:41.554Z,101494.63
2022-10-10T16:26:14.897Z,101492.84
2022-10-10T16:28:43.369Z,101495.66
2022-10-10T16:31:14.247Z,101492.97
2022-10-10T16:33:43.300Z,101502.16
2022-10-10T16:36:13.387Z,101495.84
2022-10-10T16:38:41.933Z,101498.38
2022-10-10T16:41:29.126Z,101504.44
2022-10-10T16:44:02.842Z,101508.44
2022-10-10T16:46:31.038Z,101512.22
2022-10-10T16:49:00.378Z,101509.84
2022-10-10T16:51:30.415Z,101514.16
2022-10-10T16:54:01.935Z,101510.06
2022-10-10T16:56:31.496Z,101502.66
2022-10-10T16:59:00.493Z,101503.78
2022-10-10T17:01:29.272Z,101514.03
2022-10-10T17:04:00.503Z,101509.47
2022-10-10T17:06:34.912Z,101502.97
2022-10-10T17:09:05.662Z,101511.47
2022-10-10T17:11:36.327Z,101512.56
2022-10-10T17:14:04.813Z,101514.34
2022-10-10T17:19:21.379Z,101507.28
2022-10-10T17:21:49.446Z,101511.47
2022-10-10T17:24:17.834Z,101506.41
2022-10-10T17:26:48.892Z,101505.06
2022-10-10T17:29:17.074Z,101506.25
2022-10-10T17:31:45.243Z,101512.88
2022-10-10T17:34:13.386Z,101515.06
2022-10-10T17:36:42.740Z,101512.75
2022-10-10T17:39:10.796Z,101518.88
2022-10-10T17:41:38.989Z,101524.94
2022-10-10T17:44:10.836Z,101520.84
2022-10-10T17:46:40.008Z,101515.06
2022-10-10T17:49:10.582Z,101522.56
2022-10-10T17:51:40.857Z,101522.88
2022-10-10T17:54:10.173Z,101521.84
2022-10-10T17:56:39.222Z,101519.63
2022-10-10T17:59:10.309Z,101514.66
2022-10-10T18:01:39.274Z,101511.47
2022-10-10T18:04:08.001Z,101512.44
2022-10-10T18:06:38.334Z,101502.69
2022-10-10T18:09:07.454Z,101492.22
2022-10-10T18:11:35.809Z,101500.31
2022-10-10T18:14:04.322Z,101495.91
2022-10-10T18:16:35.315Z,101502.59
2022-10-10T18:19:05.077Z,101507.88
2022-10-10T18:21:33.282Z,101506.69
2022-10-10T18:24:01.798Z,101503.69
2022-10-10T18:26:31.550Z,101515.88
2022-10-10T18:29:00.080Z,101511.28
2022-10-10T18:31:30.149Z,101521.84
2022-10-10T18:33:59.889Z,101515.47
2022-10-10T18:36:30.406Z,101514.66
2022-10-10T18:39:00.018Z,101519.75
2022-10-10T18:41:34.212Z,101511.88
2022-10-10T18:44:03.475Z,101510.69
2022-10-10T18:46:32.039Z,101508.59
2022-10-10T18:49:02.433Z,101513.47
2022-10-10T18:51:30.978Z,101511.47
2022-10-10T18:54:02.250Z,101511.13
2022-10-10T18:56:31.564Z,101514.22
2022-10-10T18:59:02.743Z,101514.41
2022-10-10T19:01:32.706Z,101515.50
2022-10-10T19:04:02.298Z,101515.19
2022-10-10T19:06:30.893Z,101519.19
2022-10-10T19:09:00.680Z,101515.00
2022-10-10T19:11:30.464Z,101525.59
2022-10-10T19:14:01.028Z,101514.81
2022-10-10T19:16:29.561Z,101518.88
2022-10-10T19:18:58.992Z,101511.00
2022-10-10T19:21:29.952Z,101522.38
2022-10-10T19:24:00.106Z,101521.88
2022-10-10T19:26:33.290Z,101514.41
2022-10-10T19:29:06.479Z,101522.38
2022-10-10T19:31:36.007Z,101517.28
2022-10-10T19:34:05.061Z,101515.50
2022-10-10T19:36:38.445Z,101524.09
2022-10-10T19:39:08.410Z,101530.38
2022-10-10T19:41:39.220Z,101524.03
2022-10-10T19:44:08.863Z,101525.59
2022-10-10T19:46:37.793Z,101524.09
2022-10-10T19:49:06.649Z,101521.31
2022-10-10T19:51:37.212Z,101520.88
2022-10-10T19:54:05.941Z,101519.00
2022-10-10T19:56:34.014Z,101513.31
2022-10-10T19:59:04.660Z,101508.53
2022-10-10T20:01:33.638Z,101506.13
2022-10-10T20:04:01.724Z,101504.22
2022-10-10T20:06:30.294Z,101506.72
2022-10-10T20:08:59.805Z,101496.94
2022-10-10T20:11:27.947Z,101501.25
2022-10-10T20:13:57.483Z,101506.22
2022-10-10T20:16:27.217Z,101504.25
2022-10-10T20:18:56.391Z,101504.94
2022-10-10T20:21:29.303Z,101505.25
2022-10-10T20:23:57.548Z,101503.84
2022-10-10T20:26:27.355Z,101505.75
2022-10-10T20:28:56.603Z,101502.84
2022-10-10T20:31:26.102Z,101501.81
2022-10-10T20:33:56.055Z,101502.28
2022-10-10T20:36:24.908Z,101497.59
2022-10-10T20:38:54.237Z,101508.69
2022-10-10T20:41:23.584Z,101500.50
2022-10-10T20:43:58.307Z,101499.09
2022-10-10T20:46:28.915Z,101500.78
2022-10-10T20:48:57.483Z,101491.78
2022-10-10T20:51:25.759Z,101494.28
2022-10-10T20:53:57.125Z,101495.69
2022-10-10T20:56:26.307Z,101493.41
2022-10-10T20:58:56.002Z,101494.69
2022-10-10T21:01:26.515Z,101496.38
2022-10-10T21:03:54.696Z,101494.47
2022-10-10T21:06:25.191Z,101496.38
2022-10-10T21:08:54.897Z,101487.50
2022-10-10T21:11:24.343Z,101482.53
2022-10-10T21:13:56.515Z,101487.09
2022-10-10T21:16:28.090Z,101483.09
2022-10-10T21:18:58.346Z,101481.00
2022-10-10T21:21:27.155Z,101477.09
2022-10-10T21:23:56.629Z,101477.78
2022-10-10T21:26:26.429Z,101474.13
2022-10-10T21:28:54.898Z,101467.91
2022-10-10T21:31:26.772Z,101469.03
2022-10-10T21:33:55.155Z,101467.53
2022-10-10T21:36:25.047Z,101464.53
2022-10-10T21:38:53.200Z,101456.63
2022-10-10T21:41:22.117Z,101464.31
2022-10-10T21:43:54.793Z,101466.41
2022-10-10T21:46:34.702Z,101459.53
2022-10-10T21:49:04.597Z,101456.13
2022-10-10T21:51:37.947Z,101463.06
2022-10-10T21:54:06.461Z,101456.25
2022-10-10T21:56:35.260Z,101461.13
2022-10-10T21:59:03.740Z,101457.44
2022-10-10T22:01:33.642Z,101452.28
2022-10-10T22:04:03.330Z,101445.78
2022-10-10T22:06:31.965Z,101444.19
2022-10-10T22:09:02.364Z,101440.78
2022-10-10T22:11:32.187Z,101444.69
2022-10-10T22:14:02.488Z,101434.22
2022-10-10T22:16:32.790Z,101428.13
2022-10-10T22:19:01.191Z,101428.41
2022-10-10T22:21:32.064Z,101439.31
2022-10-10T22:24:02.074Z,101434.00
2022-10-10T22:26:31.438Z,101439.09
2022-10-10T22:29:00.346Z,101433.03
2022-10-10T22:31:29.586Z,101433.84
2022-10-10T22:33:59.295Z,101433.34
2022-10-10T22:36:27.666Z,101428.94
2022-10-10T22:38:55.754Z,101431.22
2022-10-10T22:41:23.864Z,101422.84
2022-10-10T22:43:52.724Z,101424.47
2022-10-10T22:46:20.858Z,101428.72
2022-10-10T22:48:49.022Z,101422.56
2022-10-10T22:51:19.652Z,101422.84
2022-10-10T22:53:49.362Z,101421.25
2022-10-10T22:56:20.212Z,101429.44
2022-10-10T22:58:49.149Z,101424.34
2022-10-10T23:01:21.540Z,101419.56
2022-10-10T23:03:49.769Z,101416.53
2022-10-10T23:06:19.388Z,101429.78
2022-10-10T23:08:47.455Z,101429.38
2022-10-10T23:11:15.525Z,101422.50
2022-10-10T23:13:43.729Z,101420.25
2022-10-10T23:16:12.212Z,101418.16
2022-10-10T23:18:40.331Z,101413.19
2022-10-10T23:21:08.584Z,101412.31
2022-10-10T23:23:38.154Z,101413.66
2022-10-10T23:26:08.286Z,101412.56
2022-10-10T23:28:37.163Z,101414.53
2022-10-10T23:31:07.615Z,101411.66
2022-10-10T23:33:37.074Z,101413.50
2022-10-10T23:36:08.475Z,101405.00
2022-10-10T23:38:38.417Z,101408.53
2022-10-10T23:41:07.840Z,101405.53
2022-10-10T23:43:36.023Z,101401.72
2022-10-10T23:46:04.816Z,101397.25
2022-10-10T23:48:33.175Z,101393.00
2022-10-10T23:51:02.618Z,101390.22
2022-10-10T23:53:30.747Z,101386.34
2022-10-10T23:56:00.252Z,101388.16
2022-10-10T23:58:28.346Z,101391.06
